Time;durP1;ratioP1;P1;durP2;ratioP2;P2;SDS_P1;SDS_P2;PMS_P1;PMS_P2;Temp;Humidity;BMP_temperature;BMP_pressure;BME280_temperature;BME280_humidity;BME280_pressure;Samples;Min_cycle;Max_cycle;Signal;HPM_P1;HPM_P2
2023/08/26 00:00:20;;;;;;;24.02;19.52;;;;;;;-144.73;100.00;54461.06;5008826;28;20091;-73
2023/08/26 00:02:46;;;;;;;27.25;20.88;;;;;;;-144.73;100.00;54514.44;5006355;28;20357;-73
2023/08/26 00:05:11;;;;;;;32.92;22.40;;;;;;;-144.73;100.00;54481.59;5022554;28;20046;-73
2023/08/26 00:07:37;;;;;;;29.63;22.10;;;;;;;-144.73;100.00;54481.59;4996834;28;20052;-74
2023/08/26 00:10:02;;;;;;;33.55;23.40;;;;;;;-144.73;100.00;54493.91;5010343;28;20030;-73
2023/08/26 00:12:27;;;;;;;33.88;24.70;;;;;;;-144.73;100.00;54481.59;5002592;28;20100;-73
2023/08/26 00:14:53;;;;;;;29.58;22.15;;;;;;;-144.73;100.00;54485.69;4996995;28;20029;-74
2023/08/26 00:17:18;;;;;;;32.65;22.52;;;;;;;-144.73;100.00;54465.16;4996483;28;20032;-74
2023/08/26 00:19:44;;;;;;;33.00;23.83;;;;;;;-144.73;100.00;54473.38;5003139;28;20040;-74
2023/08/26 00:22:10;;;;;;;30.63;24.17;;;;;;;-144.73;100.00;54500.06;5010666;28;20037;-73
2023/08/26 00:24:36;;;;;;;31.52;22.27;;;;;;;-144.73;100.00;54473.38;4993621;28;20037;-73
2023/08/26 00:27:02;;;;;;;30.02;23.92;;;;;;;-144.73;100.00;54467.22;4999436;28;20036;-75
2023/08/26 00:29:27;;;;;;;34.35;24.15;;;;;;;-144.73;100.00;54539.06;5000569;28;20101;-73
2023/08/26 00:31:52;;;;;;;34.80;24.20;;;;;;;-144.73;100.00;54512.38;5010464;28;20026;-74
2023/08/26 00:34:18;;;;;;;35.72;23.65;;;;;;;-144.73;100.00;54518.53;5010412;28;20030;-74
2023/08/26 00:36:43;;;;;;;38.20;26.58;;;;;;;-144.73;100.00;54493.91;4993240;28;20025;-74
2023/08/26 00:39:08;;;;;;;33.20;25.58;;;;;;;-144.73;100.00;54477.47;4992242;28;20025;-74
2023/08/26 00:41:34;;;;;;;39.20;26.77;;;;;;;-144.73;100.00;54477.47;5018711;28;20041;-74
2023/08/26 00:43:59;;;;;;;41.63;29.00;;;;;;;-144.73;100.00;54481.59;5003038;28;20036;-74
2023/08/26 00:46:25;;;;;;;34.25;26.67;;;;;;;-144.73;100.00;54481.59;5018085;28;20034;-74
2023/08/26 00:48:50;;;;;;;35.55;28.05;;;;;;;-144.73;100.00;54510.31;5003710;28;20018;-74
2023/08/26 00:51:17;;;;;;;46.58;30.00;;;;;;;-144.73;100.00;54493.91;5005873;28;20039;-74
2023/08/26 00:53:42;;;;;;;43.35;29.52;;;;;;;-144.73;100.00;54493.91;5001065;28;20110;-74
2023/08/26 00:56:08;;;;;;;46.22;30.08;;;;;;;-144.73;100.00;54510.31;4999818;28;20112;-74
2023/08/26 00:58:35;;;;;;;41.65;28.98;;;;;;;-144.73;100.00;54489.81;4999904;28;20441;-74
2023/08/26 01:01:01;;;;;;;42.55;31.27;;;;;;;-144.73;100.00;54498.00;5011972;28;20038;-74
2023/08/26 01:03:26;;;;;;;45.28;30.73;;;;;;;-144.73;100.00;54452.84;5002767;28;20029;-74
2023/08/26 01:05:51;;;;;;;50.10;32.40;;;;;;;-144.73;100.00;54510.31;4997142;28;20025;-73
2023/08/26 01:08:17;;;;;;;46.63;33.30;;;;;;;-144.73;100.00;54510.31;5001914;28;20084;-73
2023/08/26 01:10:52;;;;;;;56.72;35.30;;;;;;;-144.73;100.00;54481.59;5004716;28;20040;-73
2023/08/26 01:13:24;;;;;;;53.90;36.63;;;;;;;-144.73;100.00;54489.81;5019854;28;20109;-74
2023/08/26 01:15:51;;;;;;;58.55;38.28;;;;;;;-144.73;100.00;54502.13;5001306;28;20033;-74
2023/08/26 01:18:17;;;;;;;54.67;36.72;;;;;;;-144.73;100.00;54481.59;5000380;28;20029;-74
2023/08/26 01:20:43;;;;;;;61.33;40.42;;;;;;;-144.73;100.00;54514.44;4997055;28;20033;-73
2023/08/26 01:23:32;;;;;;;55.50;37.47;;;;;;;-144.73;100.00;54498.00;4999144;28;20053;-73
2023/08/26 01:25:58;;;;;;;59.40;41.50;;;;;;;-144.73;100.00;54520.59;5011577;28;20030;-73
2023/08/26 01:28:25;;;;;;;57.85;40.72;;;;;;;-144.73;100.00;54518.53;5013957;28;20054;-73
2023/08/26 01:30:52;;;;;;;60.40;40.92;;;;;;;-144.73;100.00;54514.44;5007530;28;20132;-74
2023/08/26 01:33:24;;;;;;;60.42;41.78;;;;;;;-144.73;100.00;54506.22;4996088;28;20034;-74
2023/08/26 01:35:58;;;;;;;69.40;43.25;;;;;;;-144.73;100.00;54495.97;5013472;28;20033;-74
2023/08/26 01:38:25;;;;;;;67.22;41.67;;;;;;;-144.73;100.00;54502.13;5013861;28;20033;-74
2023/08/26 01:40:56;;;;;;;63.80;43.38;;;;;;;-144.73;100.00;54479.53;4999852;28;20048;-73
2023/08/26 01:43:23;;;;;;;63.10;40.72;;;;;;;-144.73;100.00;54518.53;5003505;28;20080;-73
2023/08/26 01:45:51;;;;;;;62.83;39.97;;;;;;;-144.73;100.00;54510.31;5002654;28;20033;-74
2023/08/26 01:48:16;;;;;;;60.30;40.53;;;;;;;-144.73;100.00;54491.84;5003900;28;20084;-74
2023/08/26 01:50:42;;;;;;;58.15;41.00;;;;;;;-144.73;100.00;54522.63;5020420;28;20041;-73
2023/08/26 01:53:08;;;;;;;59.47;40.08;;;;;;;-144.73;100.00;54465.16;4996316;28;20068;-73
2023/08/26 01:55:34;;;;;;;57.67;40.03;;;;;;;-144.73;100.00;54493.91;5000446;28;20048;-73
2023/08/26 01:57:59;;;;;;;65.95;44.60;;;;;;;-144.73;100.00;54502.13;4999336;28;20037;-73
2023/08/26 02:00:25;;;;;;;66.03;43.25;;;;;;;-144.73;100.00;54479.53;5002616;28;20038;-74
2023/08/26 02:02:50;;;;;;;72.80;44.53;;;;;;;-144.73;100.00;54516.47;4995519;28;20079;-74
2023/08/26 02:05:15;;;;;;;70.85;46.45;;;;;;;-144.73;100.00;54506.22;4994719;28;20038;-74
2023/08/26 02:07:42;;;;;;;76.15;47.10;;;;;;;-144.73;100.00;54539.06;4995635;28;20025;-73
2023/08/26 02:10:08;;;;;;;78.15;46.65;;;;;;;-144.73;100.00;54477.47;4995015;28;20168;-74
2023/08/26 02:12:33;;;;;;;74.80;50.60;;;;;;;-144.73;100.00;54506.22;4998335;28;20109;-74
2023/08/26 02:15:01;;;;;;;69.32;43.80;;;;;;;-144.73;100.00;54506.22;5004254;28;20029;-73
2023/08/26 02:17:26;;;;;;;75.10;46.53;;;;;;;-144.73;100.00;54498.00;5015377;28;20034;-73
2023/08/26 02:19:51;;;;;;;77.97;45.42;;;;;;;-144.73;100.00;54475.44;5004512;28;20026;-73
2023/08/26 02:22:17;;;;;;;80.68;48.28;;;;;;;-144.73;100.00;54493.91;5009508;28;20029;-73
2023/08/26 02:24:42;;;;;;;68.75;44.08;;;;;;;-144.73;100.00;54498.00;5003947;28;20392;-73
2023/08/26 02:27:07;;;;;;;71.55;44.58;;;;;;;-144.73;100.00;54473.38;5008304;28;20131;-73
2023/08/26 02:29:33;;;;;;;76.72;46.35;;;;;;;-144.73;100.00;54510.31;5003744;28;20042;-74
2023/08/26 02:31:58;;;;;;;61.97;43.53;;;;;;;-144.73;100.00;54485.69;4994396;28;20117;-73
2023/08/26 02:34:25;;;;;;;73.80;45.92;;;;;;;-144.73;100.00;54498.00;5022616;28;20052;-73
2023/08/26 02:36:51;;;;;;;68.30;43.97;;;;;;;-144.73;100.00;54481.59;4998716;28;20056;-73
2023/08/26 02:39:17;;;;;;;78.82;48.88;;;;;;;-144.73;100.00;54485.69;4998913;28;20057;-74
2023/08/26 02:41:42;;;;;;;79.57;51.13;;;;;;;-144.73;100.00;54473.38;4997453;28;20022;-74
2023/08/26 02:44:07;;;;;;;66.88;45.17;;;;;;;-144.73;100.00;54539.06;4999306;28;20436;-74
2023/08/26 02:46:33;;;;;;;72.82;47.63;;;;;;;-144.73;100.00;54498.00;4998777;28;20037;-74
2023/08/26 02:48:58;;;;;;;72.20;45.60;;;;;;;-144.73;100.00;54473.38;5009128;28;20124;-74
2023/08/26 02:51:23;;;;;;;65.63;42.55;;;;;;;-144.73;100.00;54485.69;5002728;28;20045;-74
2023/08/26 02:53:49;;;;;;;62.03;43.03;;;;;;;-144.73;100.00;54489.81;5003502;28;20026;-74
2023/08/26 02:56:14;;;;;;;72.78;44.83;;;;;;;-144.73;100.00;54518.53;5010269;28;20032;-74
2023/08/26 02:58:40;;;;;;;53.08;38.22;;;;;;;-144.73;100.00;54506.22;4999950;28;20796;-74
2023/08/26 03:01:06;;;;;;;61.92;42.47;;;;;;;-144.73;100.00;54502.13;5006691;28;20086;-74
2023/08/26 03:03:32;;;;;;;50.25;35.35;;;;;;;-144.73;100.00;54518.53;5000713;28;20091;-74
2023/08/26 03:05:58;;;;;;;62.70;41.45;;;;;;;-144.73;100.00;54512.38;5019951;28;20117;-74
2023/08/26 03:08:24;;;;;;;58.80;40.50;;;;;;;-144.73;100.00;54510.31;5001068;28;20049;-74
2023/08/26 03:11:00;;;;;;;61.65;41.33;;;;;;;-144.73;100.00;54530.84;5005401;28;20432;-75
2023/08/26 03:13:25;;;;;;;62.90;41.10;;;;;;;-144.73;100.00;54571.91;4999943;28;20060;-74
2023/08/26 03:15:51;;;;;;;60.42;42.03;;;;;;;-144.73;100.00;54506.22;4999230;28;20082;-74
2023/08/26 03:18:16;;;;;;;68.90;40.25;;;;;;;-144.73;100.00;54461.06;5014407;28;20515;-73
2023/08/26 03:20:41;;;;;;;67.47;42.45;;;;;;;-144.73;100.00;54518.53;5023512;28;20509;-74
2023/08/26 03:23:07;;;;;;;60.72;42.33;;;;;;;-144.73;100.00;54508.28;5015640;28;20034;-74
2023/08/26 03:25:37;;;;;;;61.45;41.05;;;;;;;-144.73;100.00;54514.44;5003286;28;20045;-74
2023/08/26 03:28:02;;;;;;;63.80;41.50;;;;;;;-144.73;100.00;54522.63;5003407;28;20422;-74
2023/08/26 03:30:28;;;;;;;70.32;43.85;;;;;;;-144.73;100.00;54506.22;4994972;28;20121;-74
2023/08/26 03:32:53;;;;;;;67.63;41.70;;;;;;;-144.73;100.00;54541.13;5009799;28;20034;-74
2023/08/26 03:35:18;;;;;;;70.15;45.78;;;;;;;-144.73;100.00;54510.31;4992933;28;20489;-74
2023/08/26 03:37:43;;;;;;;69.05;44.33;;;;;;;-144.73;100.00;54506.22;4993554;28;20041;-74
2023/08/26 03:40:09;;;;;;;80.38;47.65;;;;;;;-144.73;100.00;54520.59;4992884;28;20034;-74
2023/08/26 03:42:35;;;;;;;77.05;46.92;;;;;;;-144.73;100.00;54489.81;5000403;28;20022;-74
2023/08/26 03:45:00;;;;;;;75.35;46.97;;;;;;;-144.73;100.00;54506.22;5017303;28;20026;-73
2023/08/26 03:47:25;;;;;;;81.05;48.30;;;;;;;-144.73;100.00;54539.06;4996621;28;20025;-73
2023/08/26 03:49:54;;;;;;;80.22;48.72;;;;;;;-144.73;100.00;54522.63;5012822;28;20030;-74
2023/08/26 03:52:19;;;;;;;87.72;48.30;;;;;;;-144.73;100.00;54547.28;5000567;28;20080;-73
2023/08/26 03:54:44;;;;;;;90.40;51.05;;;;;;;-144.73;100.00;54514.44;4997798;28;20026;-73
2023/08/26 03:57:10;;;;;;;89.18;48.67;;;;;;;-144.73;100.00;54522.63;5000211;28;20052;-74
2023/08/26 03:59:35;;;;;;;85.43;46.35;;;;;;;-144.73;100.00;54516.47;5005395;28;20047;-73
2023/08/26 04:02:02;;;;;;;87.38;50.42;;;;;;;-144.73;100.00;54510.31;5001123;28;20025;-74
2023/08/26 04:04:29;;;;;;;86.15;50.28;;;;;;;-144.73;100.00;54604.75;5006375;28;20056;-73
2023/08/26 04:06:56;;;;;;;77.05;46.72;;;;;;;-144.73;100.00;54567.81;5023773;28;20080;-73
2023/08/26 04:09:21;;;;;;;83.85;48.08;;;;;;;-144.73;100.00;54518.53;5010717;28;20018;-73
2023/08/26 04:11:46;;;;;;;78.97;48.13;;;;;;;-144.73;100.00;54502.13;4992637;28;20021;-73
2023/08/26 04:14:12;;;;;;;78.35;46.95;;;;;;;-144.73;100.00;54514.44;4991750;28;20028;-73
2023/08/26 04:16:37;;;;;;;77.55;47.25;;;;;;;-144.73;100.00;54510.31;4993215;28;20010;-74
2023/08/26 04:19:02;;;;;;;69.88;45.03;;;;;;;-144.73;100.00;54526.75;4993161;28;20037;-73
2023/08/26 04:21:28;;;;;;;78.07;47.10;;;;;;;-144.73;100.00;54528.81;4998348;28;20030;-73
2023/08/26 04:23:53;;;;;;;74.22;46.85;;;;;;;-144.73;100.00;54483.66;5018848;28;20022;-74
2023/08/26 04:26:18;;;;;;;77.47;46.25;;;;;;;-144.73;100.00;54514.44;5019739;28;20087;-73
2023/08/26 04:28:44;;;;;;;64.35;42.13;;;;;;;-144.73;100.00;54539.06;5002729;28;20366;-74
2023/08/26 04:31:10;;;;;;;61.90;41.03;;;;;;;-144.73;100.00;54510.31;4999220;28;20034;-73
2023/08/26 04:33:36;;;;;;;66.85;38.97;;;;;;;-144.73;100.00;54539.06;5000253;28;20028;-73
2023/08/26 04:36:01;;;;;;;53.63;35.97;;;;;;;-144.73;100.00;54516.47;5001596;28;20037;-74
2023/08/26 04:38:26;;;;;;;54.13;37.50;;;;;;;-144.73;100.00;54502.13;5016234;28;20052;-73
2023/08/26 04:40:52;;;;;;;60.22;37.88;;;;;;;-144.73;100.00;54510.31;5002744;28;20038;-73
2023/08/26 04:43:17;;;;;;;62.45;37.08;;;;;;;-144.73;100.00;54520.59;5018198;28;20057;-72
2023/08/26 04:45:43;;;;;;;59.55;37.75;;;;;;;-144.73;100.00;54547.28;5005391;28;20030;-74
2023/08/26 04:48:09;;;;;;;58.08;36.83;;;;;;;-144.73;100.00;54541.13;5007074;28;20029;-74
2023/08/26 04:50:34;;;;;;;68.60;37.45;;;;;;;-144.73;100.00;54514.44;5019672;28;20141;-73
2023/08/26 04:53:01;;;;;;;61.60;37.38;;;;;;;-144.73;100.00;54604.75;5023191;28;20034;-74
2023/08/26 04:55:26;;;;;;;70.47;39.33;;;;;;;-144.73;100.00;54551.38;5008688;28;20022;-74
2023/08/26 04:57:52;;;;;;;68.80;37.80;;;;;;;-144.73;100.00;54543.16;5025314;28;20029;-72
2023/08/26 05:00:18;;;;;;;81.72;44.15;;;;;;;-144.73;100.00;54485.69;5008903;28;20025;-73
2023/08/26 05:02:44;;;;;;;83.13;44.45;;;;;;;-144.73;100.00;54512.38;4996820;28;20017;-73
2023/08/26 05:05:10;;;;;;;82.82;44.95;;;;;;;-144.73;100.00;54522.63;5013654;28;20096;-73
2023/08/26 05:07:35;;;;;;;77.03;43.58;;;;;;;-144.73;100.00;54514.44;5013294;28;20029;-73
2023/08/26 05:10:03;;;;;;;75.63;40.75;;;;;;;-144.73;100.00;54502.13;5012695;28;20041;-73
2023/08/26 05:12:30;;;;;;;76.15;40.22;;;;;;;-144.73;100.00;54547.28;4998524;28;20020;-73
2023/08/26 05:14:55;;;;;;;72.95;40.30;;;;;;;-144.73;100.00;54543.16;4996096;28;20037;-74
2023/08/26 05:17:20;;;;;;;68.47;39.08;;;;;;;-144.73;100.00;54520.59;4996618;28;20042;-73
2023/08/26 05:19:46;;;;;;;64.72;38.00;;;;;;;-144.73;100.00;54498.00;5012907;28;20026;-73
2023/08/26 05:22:11;;;;;;;57.42;34.47;;;;;;;-144.73;100.00;54539.06;5021785;28;20026;-74
2023/08/26 05:24:37;;;;;;;62.22;34.63;;;;;;;-144.73;100.00;54510.31;4996809;28;20112;-73
2023/08/26 05:27:03;;;;;;;58.53;34.03;;;;;;;-144.73;100.00;54514.44;5015448;28;20113;-73
2023/08/26 05:29:28;;;;;;;56.78;33.10;;;;;;;-144.73;100.00;54518.53;5001659;28;20096;-73
2023/08/26 05:31:53;;;;;;;55.72;31.25;;;;;;;-144.73;100.00;54522.63;5020047;28;20056;-73
2023/08/26 05:34:19;;;;;;;54.00;31.88;;;;;;;-144.73;100.00;54539.06;5000044;28;20025;-73
2023/08/26 05:36:44;;;;;;;44.40;27.88;;;;;;;-144.73;100.00;54516.47;5004892;28;20017;-73
2023/08/26 05:39:10;;;;;;;50.65;28.80;;;;;;;-144.73;100.00;54485.69;5001919;28;20029;-73
2023/08/26 05:41:35;;;;;;;43.10;26.75;;;;;;;-144.73;100.00;54510.31;5000264;28;20029;-73
2023/08/26 05:44:00;;;;;;;49.65;28.80;;;;;;;-144.73;100.00;54530.84;4996049;28;20055;-73
2023/08/26 05:46:26;;;;;;;43.25;26.85;;;;;;;-144.73;100.00;54493.91;4997530;28;20030;-74
2023/08/26 05:48:51;;;;;;;44.97;29.90;;;;;;;-144.73;100.00;54483.66;4995803;28;20053;-73
2023/08/26 05:51:16;;;;;;;44.83;26.40;;;;;;;-144.73;100.00;54514.44;4994736;28;20156;-73
2023/08/26 05:53:41;;;;;;;46.53;27.25;;;;;;;-144.73;100.00;54477.47;4995616;28;20021;-73
2023/08/26 05:56:07;;;;;;;44.80;26.77;;;;;;;-144.73;100.00;54514.44;4997577;28;20030;-73
2023/08/26 05:58:32;;;;;;;47.15;28.42;;;;;;;-144.73;100.00;54512.38;4999597;28;20025;-73
2023/08/26 06:00:58;;;;;;;41.38;27.55;;;;;;;-144.73;100.00;54481.59;5004545;28;20049;-73
2023/08/26 06:03:23;;;;;;;47.72;29.42;;;;;;;-144.73;100.00;54510.31;5002021;28;20022;-73
2023/08/26 06:05:48;;;;;;;42.85;27.63;;;;;;;-144.73;100.00;54473.38;5021344;28;20690;-73
2023/08/26 06:08:14;;;;;;;47.08;29.35;;;;;;;-144.73;100.00;54516.47;4995305;28;20018;-73
2023/08/26 06:10:39;;;;;;;47.15;27.35;;;;;;;-144.73;100.00;54539.06;4998462;28;20045;-73
2023/08/26 06:13:04;;;;;;;43.67;25.15;;;;;;;-144.73;100.00;54604.75;5022428;28;20029;-73
2023/08/26 06:15:30;;;;;;;51.22;27.63;;;;;;;-144.73;100.00;54539.06;5016837;28;20393;-73
2023/08/26 06:17:55;;;;;;;44.63;26.67;;;;;;;-144.73;100.00;54473.38;5002813;28;20029;-74
2023/08/26 06:20:22;;;;;;;43.63;27.52;;;;;;;-144.73;100.00;54493.91;4997018;28;20057;-71
2023/08/26 06:22:47;;;;;;;40.90;26.60;;;;;;;-144.73;100.00;54522.63;5001305;28;20033;-73
2023/08/26 06:25:13;;;;;;;40.03;25.65;;;;;;;-144.73;100.00;54510.31;5017106;28;20044;-72
2023/08/26 06:27:38;;;;;;;45.90;23.58;;;;;;;-144.73;100.00;54545.22;5006028;28;20388;-74
2023/08/26 06:30:04;;;;;;;36.92;24.65;;;;;;;-144.73;100.00;54504.16;5016253;28;20034;-73
2023/08/26 06:32:30;;;;;;;42.58;23.23;;;;;;;-144.73;100.00;54508.28;5027296;28;20076;-73
2023/08/26 06:34:56;;;;;;;36.72;22.25;;;;;;;-144.73;100.00;54498.00;5022981;28;20029;-73
2023/08/26 06:37:21;;;;;;;38.60;23.02;;;;;;;-144.73;100.00;54493.91;5003493;28;20045;-73
2023/08/26 06:39:47;;;;;;;38.30;23.77;;;;;;;-144.73;100.00;54520.59;5024569;28;20037;-73
2023/08/26 06:42:12;;;;;;;33.60;22.23;;;;;;;-144.73;100.00;54506.22;5003251;28;20057;-73
2023/08/26 06:44:38;;;;;;;41.90;23.02;;;;;;;-144.73;100.00;54518.53;5002682;28;20033;-73
2023/08/26 06:47:05;;;;;;;31.80;20.10;;;;;;;-144.73;100.00;54522.63;5007317;28;20025;-74
2023/08/26 06:49:30;;;;;;;34.42;20.23;;;;;;;-144.73;100.00;54518.53;4996833;28;20026;-74
2023/08/26 06:51:56;;;;;;;32.95;20.45;;;;;;;-144.73;100.00;54543.16;5009789;28;20028;-73
2023/08/26 06:54:21;;;;;;;30.08;19.85;;;;;;;-144.73;100.00;54514.44;4997178;28;20465;-74
2023/08/26 06:56:46;;;;;;;35.13;19.00;;;;;;;-144.73;100.00;54539.06;4999545;28;20017;-73
2023/08/26 06:59:13;;;;;;;28.05;16.05;;;;;;;-144.73;100.00;54543.16;4998799;28;20036;-74
2023/08/26 07:01:44;;;;;;;23.23;15.63;;;;;;;-144.73;100.00;54489.81;5020980;28;20072;-73
2023/08/26 07:04:09;;;;;;;22.27;14.18;;;;;;;-144.73;100.00;54551.38;5013938;28;20062;-74
2023/08/26 07:06:36;;;;;;;24.75;13.98;;;;;;;-144.73;100.00;54514.44;5009395;28;20052;-74
2023/08/26 07:09:03;;;;;;;22.80;14.20;;;;;;;-144.73;100.00;54539.06;5007523;28;20164;-74
2023/08/26 07:11:29;;;;;;;25.75;12.98;;;;;;;-144.73;100.00;54522.63;5002169;28;20025;-73
2023/08/26 07:13:54;;;;;;;19.88;11.25;;;;;;;-144.73;100.00;54502.13;4994337;28;20071;-74
2023/08/26 07:16:20;;;;;;;19.92;11.18;;;;;;;-144.73;100.00;54543.16;4993479;28;20104;-73
2023/08/26 07:18:45;;;;;;;22.25;9.65;;;;;;;-144.73;100.00;54508.28;4994265;28;20044;-73
2023/08/26 07:21:10;;;;;;;18.02;11.80;;;;;;;-144.73;100.00;54502.13;5010276;28;20034;-73
2023/08/26 07:23:36;;;;;;;17.08;11.10;;;;;;;-144.73;100.00;54530.84;5014624;28;20618;-73
2023/08/26 07:26:01;;;;;;;17.20;9.95;;;;;;;-144.73;100.00;54522.63;5005093;28;20030;-73
2023/08/26 07:28:28;;;;;;;17.92;10.20;;;;;;;-144.73;100.00;54485.69;5000194;28;20017;-72
2023/08/26 07:30:54;;;;;;;17.55;9.68;;;;;;;-144.73;100.00;54541.13;5017055;28;20109;-73
2023/08/26 07:33:19;;;;;;;21.05;10.70;;;;;;;-144.73;100.00;54477.47;5008495;28;20116;-72
2023/08/26 07:35:45;;;;;;;16.33;8.45;;;;;;;-144.73;100.00;54481.59;4999628;28;20053;-72
2023/08/26 07:38:10;;;;;;;12.98;9.10;;;;;;;-144.73;100.00;54502.13;5022430;28;20017;-73
2023/08/26 07:40:36;;;;;;;11.07;6.90;;;;;;;-144.73;100.00;54489.81;5001564;28;20060;-72
2023/08/26 07:43:01;;;;;;;21.55;7.60;;;;;;;-144.73;100.00;54493.91;5009770;28;20025;-72
2023/08/26 07:45:26;;;;;;;17.75;7.55;;;;;;;-144.73;100.00;54498.00;5022804;28;20052;-72
2023/08/26 07:47:52;;;;;;;12.70;5.90;;;;;;;-144.73;100.00;54473.38;4998756;28;20017;-72
2023/08/26 07:50:17;;;;;;;7.75;6.18;;;;;;;-144.73;100.00;54514.44;5013332;28;20045;-74
2023/08/26 07:52:44;;;;;;;9.90;7.10;;;;;;;-144.73;100.00;54487.75;5007726;28;20017;-72
2023/08/26 07:55:10;;;;;;;17.98;7.20;;;;;;;-144.73;100.00;54518.53;5007848;28;20026;-72
2023/08/26 07:57:35;;;;;;;13.68;6.68;;;;;;;-144.73;100.00;54485.69;5011080;28;20072;-72
2023/08/26 08:00:02;;;;;;;18.13;7.70;;;;;;;-144.73;100.00;54510.31;4992798;28;20501;-72
2023/08/26 08:02:28;;;;;;;15.32;8.70;;;;;;;-144.73;100.00;54489.81;5013325;28;20168;-72
2023/08/26 08:04:54;;;;;;;15.65;7.30;;;;;;;-144.73;100.00;54510.31;5020837;28;20128;-72
2023/08/26 08:07:19;;;;;;;13.68;6.32;;;;;;;-144.73;100.00;54452.84;5019122;28;20026;-72
2023/08/26 08:09:45;;;;;;;12.20;6.70;;;;;;;-144.73;100.00;54463.13;5002297;28;20041;-72
2023/08/26 08:12:11;;;;;;;12.15;6.47;;;;;;;-144.73;100.00;54539.06;5002594;28;20022;-71
2023/08/26 08:14:36;;;;;;;9.32;5.18;;;;;;;-144.73;100.00;54475.44;5023091;28;20037;-71
2023/08/26 08:17:03;;;;;;;17.00;5.80;;;;;;;-144.73;100.00;54514.44;5007927;28;20025;-72
2023/08/26 08:19:28;;;;;;;8.57;4.93;;;;;;;-144.73;100.00;54514.44;4992659;28;20042;-72
2023/08/26 08:21:53;;;;;;;6.68;4.80;;;;;;;-144.73;100.00;54520.59;4999711;28;20060;-72
2023/08/26 08:24:19;;;;;;;9.13;4.88;;;;;;;-144.73;100.00;54485.69;4993414;28;20032;-71
2023/08/26 08:26:44;;;;;;;10.43;5.07;;;;;;;-144.73;100.00;54489.81;4999621;28;20032;-72
2023/08/26 08:29:10;;;;;;;17.17;5.57;;;;;;;-144.73;100.00;54506.22;4992945;28;20028;-72
2023/08/26 08:31:36;;;;;;;11.07;5.30;;;;;;;-144.73;100.00;54475.44;4992892;28;20104;-73
2023/08/26 08:34:04;;;;;;;8.32;4.13;;;;;;;-144.73;100.00;54459.00;4995123;28;20436;-73
2023/08/26 08:36:30;;;;;;;12.25;3.97;;;;;;;-144.73;100.00;54467.22;4993723;28;20026;-72
2023/08/26 08:38:56;;;;;;;9.95;3.47;;;;;;;-144.73;100.00;54498.00;5023202;28;20436;-72
2023/08/26 08:41:22;;;;;;;9.60;3.75;;;;;;;-144.73;100.00;54526.75;4998322;28;20037;-72
2023/08/26 08:43:49;;;;;;;11.07;4.60;;;;;;;-144.73;100.00;54539.06;5000690;28;20021;-73
2023/08/26 08:46:16;;;;;;;11.77;3.95;;;;;;;-144.73;100.00;54502.13;5017047;28;20041;-73
2023/08/26 08:48:41;;;;;;;11.90;4.55;;;;;;;-144.73;100.00;54502.13;4993320;28;20033;-72
2023/08/26 08:51:08;;;;;;;6.43;3.20;;;;;;;-144.73;100.00;54510.31;4992638;28;20038;-71
2023/08/26 08:53:37;;;;;;;6.97;3.80;;;;;;;-144.73;100.00;54485.69;5009942;28;20080;-71
2023/08/26 08:56:03;;;;;;;14.43;4.90;;;;;;;-144.73;100.00;54506.22;5009805;28;20022;-74
2023/08/26 08:58:29;;;;;;;12.65;4.25;;;;;;;-144.73;100.00;54514.44;4992466;28;20041;-71
2023/08/26 09:00:57;;;;;;;6.93;3.65;;;;;;;-144.73;100.00;54522.63;5010041;28;20037;-72
2023/08/26 09:03:23;;;;;;;8.77;4.10;;;;;;;-144.73;100.00;54510.31;4995338;28;20034;-71
2023/08/26 09:05:51;;;;;;;8.48;4.90;;;;;;;-144.73;100.00;54604.75;5017569;28;20101;-71
2023/08/26 09:08:18;;;;;;;9.15;4.70;;;;;;;-144.73;100.00;54526.75;5000795;28;20109;-72
2023/08/26 09:10:46;;;;;;;6.80;3.85;;;;;;;-144.73;100.00;54518.53;5003740;28;20033;-72
2023/08/26 09:13:11;;;;;;;7.43;3.80;;;;;;;-144.73;100.00;54516.47;4997338;28;20030;-71
2023/08/26 09:15:37;;;;;;;8.38;3.85;;;;;;;-144.73;100.00;54498.00;5021420;28;20040;-72
2023/08/26 09:18:02;;;;;;;6.75;4.05;;;;;;;-144.73;100.00;54440.53;4999123;28;20021;-72
2023/08/26 09:20:29;;;;;;;11.85;3.83;;;;;;;-144.73;100.00;54489.81;4999382;28;20046;-73
2023/08/26 09:23:04;;;;;;;10.88;3.53;;;;;;;-144.73;100.00;54461.06;5001339;28;20026;-73
2023/08/26 09:25:31;;;;;;;9.73;3.67;;;;;;;-144.73;100.00;54506.22;5016708;28;20038;-73
2023/08/26 09:27:56;;;;;;;8.07;3.28;;;;;;;-144.73;100.00;54498.00;5000680;28;20014;-73
2023/08/26 09:30:22;;;;;;;7.10;3.50;;;;;;;-144.73;100.00;54459.00;4999615;28;20670;-73
2023/08/26 09:32:49;;;;;;;7.38;3.40;;;;;;;-144.73;100.00;54485.69;5003683;28;20024;-73
2023/08/26 09:35:16;;;;;;;8.82;3.63;;;;;;;-144.73;100.00;54500.06;5004436;28;20061;-72
2023/08/26 09:37:44;;;;;;;13.30;3.17;;;;;;;-144.73;100.00;54493.91;5005228;28;20097;-74
2023/08/26 09:40:14;;;;;;;5.75;3.20;;;;;;;-144.73;100.00;54502.13;5003039;28;20044;-73
2023/08/26 09:42:41;;;;;;;8.63;3.40;;;;;;;-144.73;100.00;54461.06;5004549;28;20017;-75
2023/08/26 09:45:08;;;;;;;7.78;2.83;;;;;;;-144.73;100.00;54465.16;5022467;28;20037;-73
2023/08/26 09:47:36;;;;;;;8.73;3.25;;;;;;;-144.73;100.00;54467.22;5003439;28;20089;-74
2023/08/26 09:50:01;;;;;;;8.82;3.10;;;;;;;-144.73;100.00;54440.53;5002672;28;20462;-73
2023/08/26 09:52:27;;;;;;;10.13;3.28;;;;;;;-144.73;100.00;54477.47;5003150;28;20075;-73
2023/08/26 09:54:53;;;;;;;10.18;2.63;;;;;;;-144.73;100.00;54489.81;5022280;28;20077;-73
2023/08/26 09:57:18;;;;;;;10.27;2.42;;;;;;;-144.73;100.00;54473.38;4996929;28;20120;-73
2023/08/26 09:59:44;;;;;;;12.45;3.05;;;;;;;-144.73;100.00;54473.38;4994656;28;20122;-73
2023/08/26 10:02:30;;;;;;;6.78;2.63;;;;;;;-144.73;100.00;54465.16;5004988;28;20061;-73
2023/08/26 10:05:00;;;;;;;6.07;2.65;;;;;;;-144.73;100.00;54473.38;5005388;28;20033;-73
2023/08/26 10:07:30;;;;;;;9.95;3.63;;;;;;;-144.73;100.00;54498.00;4995238;28;20032;-74
2023/08/26 10:10:07;;;;;;;5.80;2.80;;;;;;;-144.73;100.00;54446.69;5000974;28;20026;-73
2023/08/26 10:12:39;;;;;;;7.82;3.17;;;;;;;-144.73;100.00;54502.13;4989247;28;20022;-74
2023/08/26 10:15:11;;;;;;;6.75;2.95;;;;;;;-144.73;100.00;54477.47;4991290;28;20037;-74
2023/08/26 10:17:39;;;;;;;5.35;2.75;;;;;;;-144.73;100.00;54469.28;4988798;28;20018;-74
2023/08/26 10:20:06;;;;;;;13.57;3.20;;;;;;;-144.73;100.00;54465.16;5005924;28;20115;-73
2023/08/26 10:22:31;;;;;;;10.65;3.35;;;;;;;-144.73;100.00;54461.06;4998281;28;20025;-74
2023/08/26 10:24:58;;;;;;;7.72;3.00;;;;;;;-144.73;100.00;54448.75;5012195;28;20096;-74
2023/08/26 10:27:23;;;;;;;9.55;3.17;;;;;;;-144.73;100.00;54477.47;4994377;28;20025;-73
2023/08/26 10:29:49;;;;;;;8.02;2.97;;;;;;;-144.73;100.00;54477.47;4988346;28;20030;-73
2023/08/26 10:32:20;;;;;;;7.13;2.28;;;;;;;-144.73;100.00;54498.00;4992140;28;20085;-73
2023/08/26 10:34:55;;;;;;;6.25;2.55;;;;;;;-144.73;100.00;54522.63;4991165;28;20107;-74
2023/08/26 10:37:28;;;;;;;6.88;2.50;;;;;;;-144.73;100.00;54475.44;4990317;28;20143;-73
2023/08/26 10:39:54;;;;;;;10.63;2.35;;;;;;;-144.73;100.00;54461.06;4992454;28;20030;-73
2023/08/26 10:42:21;;;;;;;7.55;2.63;;;;;;;-144.73;100.00;54495.97;5006425;28;20056;-73
2023/08/26 10:44:48;;;;;;;7.53;2.95;;;;;;;-144.73;100.00;54469.28;4985905;28;20034;-73
2023/08/26 10:47:37;;;;;;;6.63;2.55;;;;;;;-144.73;100.00;54456.97;4992572;28;20029;-73
2023/08/26 10:50:25;;;;;;;9.10;2.47;;;;;;;-144.73;100.00;54428.22;4988775;28;20045;-73
2023/08/26 10:52:54;;;;;;;6.65;2.70;;;;;;;-144.73;100.00;54493.91;4993542;28;20017;-73